Time;durP1;ratioP1;P1;durP2;ratioP2;P2;SDS_P1;SDS_P2;PMS_P1;PMS_P2;Temp;Humidity;BMP_temperature;BMP_pressure;BME280_temperature;BME280_humidity;BME280_pressure;Samples;Min_cycle;Max_cycle;Signal;HPM_P1;HPM_P2
2021/05/19 00:00:09;;;;;;;7.17;3.50;;;10.10;84.80;;;;;;5038941;28;20488;-74
2021/05/19 00:02:35;;;;;;;8.63;4.10;;;10.20;85.10;;;;;;5039260;28;20028;-74
2021/05/19 00:05:01;;;;;;;6.13;3.67;;;10.10;85.20;;;;;;5072455;28;20567;-74
2021/05/19 00:07:26;;;;;;;7.93;4.03;;;10.10;85.50;;;;;;5055595;28;20032;-75
2021/05/19 00:09:52;;;;;;;12.67;4.37;;;10.10;85.80;;;;;;5072417;28;20025;-75
2021/05/19 00:12:18;;;;;;;9.97;3.97;;;10.00;86.10;;;;;;5071955;28;20024;-75
2021/05/19 00:14:43;;;;;;;10.93;5.53;;;10.00;86.20;;;;;;5073371;28;20025;-74
2021/05/19 00:17:09;;;;;;;9.20;5.07;;;10.10;86.50;;;;;;5055715;28;20024;-75
2021/05/19 00:19:35;;;;;;;9.73;4.03;;;10.00;87.30;;;;;;5073331;28;20040;-74
2021/05/19 00:22:00;;;;;;;8.60;4.50;;;9.90;86.80;;;;;;5072373;28;20029;-74
2021/05/19 00:24:26;;;;;;;6.53;4.17;;;10.00;87.10;;;;;;5055501;28;20108;-75
2021/05/19 00:26:52;;;;;;;7.83;4.17;;;10.00;87.30;;;;;;5055357;28;20356;-74
2021/05/19 00:29:17;;;;;;;7.67;4.50;;;10.00;87.50;;;;;;5072031;28;20068;-74
2021/05/19 00:31:44;;;;;;;8.13;4.73;;;9.90;87.70;;;;;;5073418;28;20021;-74
2021/05/19 00:34:11;;;;;;;8.70;4.63;;;10.00;88.00;;;;;;5073508;28;20068;-74
2021/05/19 00:36:38;;;;;;;8.97;4.67;;;9.90;88.10;;;;;;5072158;28;20044;-74
2021/05/19 00:39:06;;;;;;;10.33;4.77;;;9.90;88.20;;;;;;5072046;28;20024;-75
2021/05/19 00:41:32;;;;;;;8.83;5.20;;;9.90;88.30;;;;;;5072108;28;20020;-74
2021/05/19 00:44:05;;;;;;;9.73;6.13;;;9.90;88.50;;;;;;5071785;28;20028;-74
2021/05/19 00:46:32;;;;;;;9.32;5.72;;;10.00;88.70;;;;;;5055012;28;20039;-74
2021/05/19 00:48:57;;;;;;;12.67;6.10;;;9.90;88.60;;;;;;5055444;28;20021;-74
2021/05/19 00:51:23;;;;;;;12.00;7.07;;;9.90;88.60;;;;;;5055279;28;20074;-74
2021/05/19 00:53:49;;;;;;;11.43;6.70;;;9.90;88.60;;;;;;5073036;28;20029;-74
2021/05/19 00:56:15;;;;;;;13.40;6.87;;;9.80;88.60;;;;;;5055377;28;20040;-74
2021/05/19 00:58:42;;;;;;;12.73;7.23;;;9.80;88.70;;;;;;5071693;28;20045;-75
2021/05/19 01:01:08;;;;;;;14.43;6.80;;;9.80;88.90;;;;;;5071804;28;20579;-74
2021/05/19 01:03:34;;;;;;;11.40;6.43;;;9.90;89.00;;;;;;5055413;28;20028;-75
2021/05/19 01:06:03;;;;;;;9.50;6.23;;;9.90;89.10;;;;;;5073286;28;20036;-74
2021/05/19 01:11:15;;;;;;;12.18;7.00;;;10.00;89.10;;;;;;5073132;28;20040;-75
2021/05/19 01:13:44;;;;;;;13.33;6.80;;;10.00;88.90;;;;;;5073135;28;20021;-74
2021/05/19 01:16:10;;;;;;;11.67;6.33;;;10.00;88.90;;;;;;5071390;28;20028;-74
2021/05/19 01:18:37;;;;;;;10.03;6.70;;;10.00;89.00;;;;;;5071870;28;20036;-75
2021/05/19 01:21:03;;;;;;;11.13;6.80;;;10.10;89.00;;;;;;5053677;28;20059;-74
2021/05/19 01:23:30;;;;;;;11.13;7.13;;;10.10;89.10;;;;;;5051491;28;20037;-75
2021/05/19 01:25:58;;;;;;;11.87;6.93;;;10.20;89.20;;;;;;5055197;28;20043;-74
2021/05/19 01:28:23;;;;;;;11.37;6.90;;;10.20;89.10;;;;;;5055241;28;20073;-75
2021/05/19 01:30:49;;;;;;;10.70;7.20;;;10.30;88.90;;;;;;5056338;28;20065;-74
2021/05/19 01:33:16;;;;;;;12.17;7.73;;;10.20;89.30;;;;;;5054866;28;20053;-74
2021/05/19 01:35:42;;;;;;;11.97;7.80;;;10.20;88.60;;;;;;5056212;28;20424;-74
2021/05/19 01:38:09;;;;;;;12.70;7.40;;;10.20;88.70;;;;;;5038632;28;20044;-74
2021/05/19 01:40:36;;;;;;;11.97;6.97;;;10.20;88.70;;;;;;5054825;28;20029;-74
2021/05/19 01:43:03;;;;;;;12.17;7.33;;;10.10;88.70;;;;;;5056294;28;20040;-74
2021/05/19 01:45:29;;;;;;;9.93;6.57;;;9.90;88.70;;;;;;5055871;28;20067;-74
2021/05/19 01:47:56;;;;;;;9.87;5.83;;;10.00;88.70;;;;;;5056131;28;20025;-74
2021/05/19 01:50:28;;;;;;;9.27;6.07;;;10.00;88.80;;;;;;5038276;28;20029;-74
2021/05/19 01:52:58;;;;;;;9.43;5.80;;;9.90;88.90;;;;;;5056087;28;20021;-74
2021/05/19 01:55:26;;;;;;;9.50;5.87;;;9.90;89.10;;;;;;5055867;28;20162;-74
2021/05/19 01:57:52;;;;;;;9.70;5.67;;;9.80;89.30;;;;;;5055669;28;20064;-75
2021/05/19 02:00:21;;;;;;;12.27;6.90;;;9.80;89.50;;;;;;5055704;28;20033;-74
2021/05/19 02:02:58;;;;;;;12.33;7.33;;;9.80;89.80;;;;;;5055975;28;20025;-75
2021/05/19 02:05:25;;;;;;;13.00;7.87;;;9.80;89.90;;;;;;5055722;28;20036;-74
2021/05/19 02:07:52;;;;;;;14.33;7.87;;;9.80;90.00;;;;;;5055746;28;20091;-75
2021/05/19 02:10:18;;;;;;;14.37;8.93;;;9.80;90.00;;;;;;5037737;28;20031;-74
2021/05/19 02:12:43;;;;;;;12.17;8.57;;;9.80;89.90;;;;;;5054087;28;20376;-74
2021/05/19 02:15:09;;;;;;;15.63;8.77;;;9.70;89.80;;;;;;5053950;28;20029;-74
2021/05/19 02:17:35;;;;;;;13.27;8.37;;;9.70;89.90;;;;;;5054454;28;20087;-74
2021/05/19 02:20:13;;;;;;;13.30;8.67;;;9.70;89.90;;;;;;5054228;28;20500;-75
2021/05/19 02:22:39;;;;;;;18.27;9.17;;;9.70;90.00;;;;;;5054137;28;20025;-74
2021/05/19 02:25:05;;;;;;;14.97;9.30;;;9.60;90.00;;;;;;5054057;28;20029;-74
2021/05/19 02:27:31;;;;;;;15.07;9.80;;;9.60;90.00;;;;;;5053841;28;20059;-74
2021/05/19 02:29:57;;;;;;;13.03;9.37;;;9.60;90.00;;;;;;5037509;28;20120;-74
2021/05/19 02:32:25;;;;;;;13.83;10.13;;;9.60;90.00;;;;;;5055438;28;20071;-74
2021/05/19 02:34:51;;;;;;;13.70;9.47;;;9.60;90.00;;;;;;5053987;28;20441;-74
2021/05/19 02:37:16;;;;;;;15.30;10.33;;;9.70;90.00;;;;;;5054507;28;20037;-74
2021/05/19 02:39:42;;;;;;;17.40;10.13;;;9.50;90.00;;;;;;5037185;28;20052;-74
2021/05/19 02:42:08;;;;;;;15.10;10.33;;;9.50;90.00;;;;;;5037378;28;20040;-74
2021/05/19 02:44:34;;;;;;;15.03;10.30;;;9.50;90.10;;;;;;5054993;28;20060;-74
2021/05/19 02:46:59;;;;;;;15.70;11.00;;;9.50;90.10;;;;;;5036981;28;20122;-74
2021/05/19 02:49:26;;;;;;;15.93;11.00;;;9.60;90.20;;;;;;5037350;28;20476;-75
2021/05/19 02:51:52;;;;;;;16.50;10.30;;;9.50;90.20;;;;;;5037010;28;20060;-74
2021/05/19 02:54:17;;;;;;;15.60;10.70;;;9.50;90.20;;;;;;5037011;28;20068;-74
2021/05/19 02:56:43;;;;;;;17.33;9.80;;;9.50;90.30;;;;;;5053266;28;20450;-74
2021/05/19 02:59:09;;;;;;;14.47;10.00;;;9.50;90.30;;;;;;5053669;28;20053;-74
2021/05/19 03:01:34;;;;;;;16.37;10.77;;;9.40;90.30;;;;;;5020667;28;20029;-73
2021/05/19 03:04:00;;;;;;;17.87;10.70;;;9.40;90.30;;;;;;5036990;28;20029;-74
2021/05/19 03:06:26;;;;;;;16.47;10.37;;;9.40;90.60;;;;;;5020117;28;20389;-80
2021/05/19 03:08:52;;;;;;;16.30;10.73;;;9.40;90.40;;;;;;5054224;28;20562;-80
2021/05/19 03:11:18;;;;;;;15.97;11.77;;;9.40;90.40;;;;;;5053177;28;20127;-80
2021/05/19 03:13:44;;;;;;;15.17;10.50;;;9.30;90.40;;;;;;5053061;28;20476;-80
2021/05/19 03:16:09;;;;;;;15.70;10.60;;;9.30;90.40;;;;;;5052996;28;20036;-78
2021/05/19 03:18:35;;;;;;;17.97;10.47;;;9.30;90.40;;;;;;5053040;28;20385;-80
2021/05/19 03:21:02;;;;;;;14.43;9.77;;;9.30;90.40;;;;;;5054669;28;20025;-80
2021/05/19 03:23:29;;;;;;;15.83;10.43;;;9.20;90.70;;;;;;5054018;28;20074;-80
2021/05/19 03:25:55;;;;;;;13.33;9.77;;;9.20;90.40;;;;;;5036102;28;20112;-80
2021/05/19 03:28:21;;;;;;;16.87;10.83;;;9.20;90.50;;;;;;5054040;28;20170;-80
2021/05/19 03:30:48;;;;;;;16.83;11.20;;;9.10;90.50;;;;;;5052748;28;20108;-80
2021/05/19 03:33:13;;;;;;;17.87;11.13;;;9.10;90.60;;;;;;5052640;28;20060;-80
2021/05/19 03:35:39;;;;;;;13.43;9.67;;;9.20;90.60;;;;;;5052538;28;20048;-80
2021/05/19 03:38:05;;;;;;;15.77;11.63;;;9.20;90.60;;;;;;5052588;28;20122;-80
2021/05/19 03:40:31;;;;;;;14.80;10.47;;;9.20;90.70;;;;;;5036038;28;20029;-81
2021/05/19 03:42:57;;;;;;;16.80;11.13;;;9.20;90.80;;;;;;5035939;28;20021;-80
2021/05/19 03:45:25;;;;;;;15.13;10.93;;;9.20;90.70;;;;;;5052425;28;20511;-80
2021/05/19 03:47:53;;;;;;;16.90;11.30;;;9.30;90.80;;;;;;5051466;28;20115;-80
2021/05/19 03:50:20;;;;;;;16.57;10.60;;;9.30;90.80;;;;;;5036062;28;20428;-80
2021/05/19 03:52:46;;;;;;;19.63;12.37;;;9.40;90.80;;;;;;5053534;28;20029;-81
2021/05/19 03:55:13;;;;;;;15.17;10.83;;;9.40;90.80;;;;;;5035872;28;20106;-80
2021/05/19 03:57:39;;;;;;;14.30;10.77;;;9.40;90.80;;;;;;5052718;28;20148;-80
2021/05/19 04:00:11;;;;;;;14.70;10.70;;;9.50;90.90;;;;;;5053391;28;20370;-81
2021/05/19 04:02:36;;;;;;;16.47;10.53;;;9.50;90.90;;;;;;5071178;28;20107;-80
2021/05/19 04:05:03;;;;;;;14.90;11.17;;;9.50;90.90;;;;;;5039019;28;20055;-80
2021/05/19 04:07:28;;;;;;;13.70;9.93;;;9.60;90.90;;;;;;5072380;28;20048;-79
2021/05/19 04:09:54;;;;;;;15.20;10.97;;;9.60;90.90;;;;;;5055515;28;20400;-80
2021/05/19 04:12:19;;;;;;;15.70;10.93;;;9.60;90.80;;;;;;5073466;28;20035;-79
2021/05/19 04:14:45;;;;;;;17.20;11.50;;;9.60;90.80;;;;;;5038850;28;20107;-80
2021/05/19 04:17:11;;;;;;;14.13;10.73;;;9.60;90.80;;;;;;5073604;28;20122;-80
2021/05/19 04:19:36;;;;;;;16.30;10.40;;;9.60;90.70;;;;;;5073350;28;20025;-80
2021/05/19 04:22:02;;;;;;;14.20;10.30;;;9.70;90.70;;;;;;5055362;28;20025;-79
2021/05/19 04:24:28;;;;;;;18.00;10.80;;;9.70;90.70;;;;;;5070172;28;20032;-80
2021/05/19 04:26:54;;;;;;;18.57;11.97;;;9.70;90.70;;;;;;5071950;28;20468;-80
2021/05/19 04:29:19;;;;;;;14.03;10.23;;;9.70;90.70;;;;;;5055734;28;20037;-80
2021/05/19 04:31:45;;;;;;;14.37;10.10;;;9.80;90.70;;;;;;5055409;28;20032;-79
2021/05/19 04:34:10;;;;;;;16.67;11.33;;;9.90;90.70;;;;;;5071950;28;20051;-81
2021/05/19 04:36:36;;;;;;;13.23;10.47;;;9.80;90.70;;;;;;5038649;28;20024;-80
2021/05/19 04:39:04;;;;;;;16.27;9.70;;;9.80;90.70;;;;;;5071338;28;20067;-79
2021/05/19 04:41:30;;;;;;;14.43;9.90;;;9.90;90.70;;;;;;5074689;28;20031;-80
2021/05/19 04:43:56;;;;;;;14.40;10.30;;;9.90;90.80;;;;;;5079184;28;20025;-80
2021/05/19 04:46:21;;;;;;;12.70;9.40;;;9.90;90.70;;;;;;5040765;28;20025;-81
2021/05/19 04:48:49;;;;;;;13.70;9.83;;;10.00;90.70;;;;;;5055554;28;20384;-81
2021/05/19 04:51:15;;;;;;;15.20;10.40;;;10.00;90.80;;;;;;5073127;28;20029;-80
2021/05/19 04:53:41;;;;;;;13.17;9.57;;;10.00;90.80;;;;;;5050713;28;20028;-79
2021/05/19 04:56:10;;;;;;;11.80;9.17;;;10.00;90.80;;;;;;5054823;28;20043;-79
2021/05/19 04:58:35;;;;;;;15.20;9.77;;;10.00;90.80;;;;;;5054436;28;20471;-79
2021/05/19 05:01:01;;;;;;;14.30;10.10;;;10.10;90.90;;;;;;5075798;28;20047;-80
2021/05/19 05:03:26;;;;;;;12.80;9.73;;;10.20;90.80;;;;;;5059041;28;20024;-80
2021/05/19 05:05:53;;;;;;;12.70;9.77;;;10.10;90.80;;;;;;5077504;28;20161;-80
2021/05/19 05:08:19;;;;;;;14.50;9.03;;;10.20;90.80;;;;;;5043535;28;20032;-80
2021/05/19 05:10:45;;;;;;;14.70;10.30;;;10.20;90.70;;;;;;5064537;28;20028;-80
2021/05/19 05:13:10;;;;;;;14.50;9.70;;;10.40;90.80;;;;;;5055336;28;20500;-80
2021/05/19 05:15:36;;;;;;;15.73;10.40;;;10.30;90.70;;;;;;5066489;28;20040;-80
2021/05/19 05:18:02;;;;;;;15.20;10.13;;;10.40;90.70;;;;;;5075190;28;20036;-80
2021/05/19 05:20:27;;;;;;;17.03;9.17;;;10.40;90.70;;;;;;5058712;28;20043;-80
2021/05/19 05:22:53;;;;;;;13.83;9.00;;;10.40;90.70;;;;;;5075124;28;20028;-80
2021/05/19 05:25:20;;;;;;;14.67;8.67;;;10.50;90.70;;;;;;5058420;28;20032;-78
2021/05/19 05:27:48;;;;;;;13.23;8.87;;;10.50;90.70;;;;;;5074992;28;20032;-79
2021/05/19 05:30:15;;;;;;;13.20;9.03;;;10.50;90.60;;;;;;5058732;28;20699;-77
2021/05/19 05:32:41;;;;;;;14.23;9.27;;;10.60;90.60;;;;;;5076363;28;20020;-79
2021/05/19 05:35:08;;;;;;;15.87;9.60;;;10.70;90.60;;;;;;5074592;28;20037;-79
2021/05/19 05:37:33;;;;;;;13.93;8.43;;;10.70;90.50;;;;;;5074736;28;20107;-79
2021/05/19 05:39:59;;;;;;;13.30;9.27;;;10.80;90.50;;;;;;5074726;28;20059;-80
2021/05/19 05:42:27;;;;;;;19.27;9.57;;;10.80;90.50;;;;;;5074505;28;20028;-81
2021/05/19 05:44:53;;;;;;;16.53;10.47;;;10.90;90.50;;;;;;5065384;28;20082;-81
2021/05/19 05:47:19;;;;;;;14.00;9.63;;;10.90;90.50;;;;;;5054909;28;20120;-78
2021/05/19 05:49:45;;;;;;;16.13;9.73;;;11.00;90.50;;;;;;5056079;28;20491;-79
2021/05/19 05:52:10;;;;;;;13.47;9.57;;;11.00;90.50;;;;;;5054951;28;20021;-80
2021/05/19 05:54:36;;;;;;;16.67;10.57;;;11.10;90.40;;;;;;5063891;28;20048;-79
2021/05/19 05:57:02;;;;;;;16.57;10.90;;;11.10;90.40;;;;;;5061779;28;20032;-81
2021/05/19 05:59:29;;;;;;;17.20;10.67;;;11.10;90.30;;;;;;5054187;28;20048;-76
2021/05/19 06:01:55;;;;;;;18.47;10.53;;;11.10;90.30;;;;;;5066493;28;20036;-79
2021/05/19 06:04:21;;;;;;;16.40;9.73;;;11.10;90.30;;;;;;5073978;28;20035;-80
2021/05/19 06:06:46;;;;;;;17.37;10.87;;;11.10;90.30;;;;;;5073958;28;20017;-79
2021/05/19 06:09:12;;;;;;;16.20;9.97;;;11.20;90.20;;;;;;5056586;28;20070;-80
2021/05/19 06:11:38;;;;;;;17.07;10.93;;;11.20;90.20;;;;;;5072933;28;20372;-79
2021/05/19 06:14:03;;;;;;;17.77;11.03;;;11.20;90.20;;;;;;5075195;28;20021;-79
2021/05/19 06:16:29;;;;;;;21.23;11.70;;;11.20;90.20;;;;;;5075177;28;20025;-80
2021/05/19 06:18:55;;;;;;;19.27;11.63;;;11.20;90.20;;;;;;5073686;28;20046;-78
2021/05/19 06:21:20;;;;;;;17.38;10.50;;;11.40;90.30;;;;;;5073414;28;20124;-80
2021/05/19 06:23:46;;;;;;;20.63;10.90;;;11.40;90.30;;;;;;5074925;28;20021;-77
2021/05/19 06:26:12;;;;;;;19.40;10.27;;;11.50;90.30;;;;;;5073796;28;20116;-79
2021/05/19 06:28:37;;;;;;;20.97;10.90;;;11.70;90.60;;;;;;5040546;28;20024;-77
2021/05/19 06:31:03;;;;;;;26.27;13.63;;;11.70;90.30;;;;;;5073371;28;20125;-79
2021/05/19 06:33:29;;;;;;;19.27;12.00;;;11.80;90.20;;;;;;5073633;28;20112;-80
2021/05/19 06:35:54;;;;;;;18.83;12.45;;;11.90;90.30;;;;;;5056976;28;20116;-79
2021/05/19 06:38:20;;;;;;;21.27;11.25;;;11.90;90.00;;;;;;5057031;28;20031;-80
2021/05/19 06:40:46;;;;;;;28.15;13.43;;;12.00;90.00;;;;;;5056818;28;20111;-79
2021/05/19 06:43:11;;;;;;;22.90;12.75;;;12.10;90.00;;;;;;5063942;28;20502;-78
2021/05/19 06:45:37;;;;;;;21.85;12.43;;;12.20;89.70;;;;;;5074103;28;20388;-78
2021/05/19 06:48:03;;;;;;;23.17;13.60;;;12.20;89.60;;;;;;5071313;28;20032;-80
2021/05/19 06:50:29;;;;;;;16.67;12.00;;;12.30;89.50;;;;;;5055657;28;20515;-79
2021/05/19 06:52:54;;;;;;;21.08;12.55;;;12.30;89.50;;;;;;5055068;28;20025;-78
2021/05/19 06:55:22;;;;;;;19.98;12.55;;;12.40;89.40;;;;;;5053733;28;20025;-78
2021/05/19 06:57:48;;;;;;;23.45;12.77;;;12.40;89.20;;;;;;5053674;28;20029;-79
2021/05/19 07:00:14;;;;;;;22.35;14.55;;;12.40;89.00;;;;;;5065113;28;20111;-77
2021/05/19 07:02:39;;;;;;;22.25;13.80;;;12.50;88.90;;;;;;5049635;28;20025;-80
2021/05/19 07:05:07;;;;;;;21.63;13.75;;;12.50;88.60;;;;;;5053162;28;20078;-80
2021/05/19 07:07:33;;;;;;;23.10;13.93;;;12.50;88.70;;;;;;5052958;28;20037;-79
2021/05/19 07:09:58;;;;;;;23.92;13.30;;;12.50;88.50;;;;;;5036325;28;20116;-79
2021/05/19 07:12:24;;;;;;;20.63;12.85;;;12.60;88.70;;;;;;5053480;28;20083;-80
2021/05/19 07:14:52;;;;;;;25.90;14.27;;;12.70;88.60;;;;;;5053248;28;20072;-78
2021/05/19 07:17:18;;;;;;;21.98;14.27;;;12.80;88.50;;;;;;5053080;28;20464;-79
2021/05/19 07:19:43;;;;;;;21.35;15.00;;;12.90;88.40;;;;;;5053478;28;20075;-79
2021/05/19 07:22:09;;;;;;;27.92;15.68;;;12.90;87.80;;;;;;5058320;28;20039;-81
2021/05/19 07:24:35;;;;;;;26.48;14.40;;;13.00;87.30;;;;;;5072626;28;20104;-78
2021/05/19 07:27:01;;;;;;;27.15;14.10;;;13.00;87.00;;;;;;5073103;28;20029;-80
2021/05/19 07:29:27;;;;;;;23.40;13.70;;;13.10;87.00;;;;;;5062931;28;20047;-80
2021/05/19 07:31:53;;;;;;;25.88;16.65;;;13.00;86.90;;;;;;5052493;28;20021;-81
2021/05/19 07:34:19;;;;;;;23.27;15.18;;;12.90;86.60;;;;;;5053091;28;20052;-79
2021/05/19 07:36:45;;;;;;;25.63;16.02;;;13.00;86.60;;;;;;5052568;28;20069;-79
2021/05/19 07:39:11;;;;;;;29.13;15.93;;;13.00;86.50;;;;;;5051500;28;20104;-79
2021/05/19 07:41:37;;;;;;;27.13;16.08;;;13.00;86.60;;;;;;5053778;28;20480;-79
2021/05/19 07:44:04;;;;;;;29.23;16.70;;;12.90;86.60;;;;;;5052674;28;20029;-80
2021/05/19 07:46:30;;;;;;;25.88;15.10;;;13.10;86.60;;;;;;5036219;28;20025;-81
2021/05/19 07:48:55;;;;;;;24.65;15.85;;;13.10;86.70;;;;;;5035702;28;20036;-83
2021/05/19 07:51:21;;;;;;;24.65;15.52;;;13.30;86.70;;;;;;5036016;28;20024;-79
2021/05/19 07:53:46;;;;;;;23.92;15.88;;;13.50;86.30;;;;;;5052739;28;20683;-79
2021/05/19 07:58:42;;;;;;;25.08;14.57;;;13.60;85.40;;;;;;5053298;28;20045;-80
2021/05/19 08:03:50;;;;;;;23.40;13.98;;;13.60;85.00;;;;;;5053345;28;20037;-80
2021/05/19 08:06:16;;;;;;;20.45;13.63;;;13.60;84.70;;;;;;5053299;28;20075;-82
2021/05/19 08:08:42;;;;;;;23.80;14.38;;;13.60;84.70;;;;;;5051855;28;20484;-82
2021/05/19 08:11:08;;;;;;;22.35;15.32;;;13.70;84.60;;;;;;5052091;28;20536;-78
2021/05/19 08:13:39;;;;;;;23.38;14.73;;;13.70;84.60;;;;;;5053287;28;20033;-80
2021/05/19 08:16:05;;;;;;;24.23;13.30;;;13.70;84.40;;;;;;5036413;28;20021;-81
2021/05/19 08:18:31;;;;;;;21.77;13.63;;;13.80;84.20;;;;;;5035358;28;20040;-81
2021/05/19 08:20:56;;;;;;;23.13;12.75;;;13.80;83.70;;;;;;5053525;28;20393;-81
2021/05/19 08:23:22;;;;;;;23.00;13.85;;;13.80;83.30;;;;;;5053474;28;20037;-82
2021/05/19 08:25:48;;;;;;;22.70;13.57;;;13.80;83.30;;;;;;5018965;28;20037;-81
2021/05/19 08:28:13;;;;;;;21.85;14.65;;;13.80;82.80;;;;;;5035435;28;20033;-80
2021/05/19 08:30:39;;;;;;;24.92;15.05;;;13.80;82.60;;;;;;5054563;28;20116;-83
2021/05/19 08:33:05;;;;;;;28.08;16.90;;;13.80;82.70;;;;;;5052204;28;20037;-81
2021/05/19 08:35:30;;;;;;;24.33;14.13;;;13.70;82.80;;;;;;5055353;28;20124;-80
2021/05/19 08:37:56;;;;;;;23.33;15.63;;;13.80;83.00;;;;;;5057199;28;20040;-80
2021/05/19 08:40:22;;;;;;;24.92;16.13;;;13.80;83.10;;;;;;5057018;28;20083;-83
2021/05/19 08:42:49;;;;;;;25.23;15.32;;;13.90;83.20;;;;;;5055936;28;20029;-80
2021/05/19 08:45:15;;;;;;;25.17;15.15;;;14.00;83.00;;;;;;5072408;28;20074;-82
2021/05/19 08:47:41;;;;;;;22.17;14.48;;;14.10;82.60;;;;;;5048961;28;20377;-82
2021/05/19 08:50:09;;;;;;;20.70;12.98;;;14.10;81.90;;;;;;5055663;28;20040;-80
2021/05/19 08:52:38;;;;;;;24.23;14.13;;;14.20;81.70;;;;;;5039649;28;20037;-80
2021/05/19 08:55:15;;;;;;;20.80;12.40;;;14.20;81.00;;;;;;5062086;28;20018;-79
2021/05/19 08:57:41;;;;;;;18.80;11.80;;;14.20;81.00;;;;;;5076774;28;20039;-81
2021/05/19 09:00:09;;;;;;;18.48;12.55;;;14.30;81.20;;;;;;5076508;28;20488;-80
2021/05/19 09:02:35;;;;;;;21.35;12.70;;;14.40;81.20;;;;;;5076746;28;20127;-82
2021/05/19 09:05:01;;;;;;;20.55;13.40;;;14.60;81.30;;;;;;5058818;28;20116;-83
2021/05/19 09:07:27;;;;;;;22.25;12.32;;;14.70;80.70;;;;;;5074905;28;20028;-80
2021/05/19 09:09:53;;;;;;;19.35;11.95;;;14.80;80.10;;;;;;5061781;28;20052;-81
2021/05/19 09:12:19;;;;;;;21.33;13.15;;;14.90;80.00;;;;;;5054690;28;20052;-82
2021/05/19 09:14:51;;;;;;;19.88;13.38;;;15.00;79.70;;;;;;5055107;28;20104;-79
2021/05/19 09:17:25;;;;;;;19.60;12.35;;;15.10;79.40;;;;;;5055323;28;20024;-82
2021/05/19 09:20:07;;;;;;;24.00;12.85;;;15.30;79.20;;;;;;5055896;28;20119;-79
2021/05/19 09:22:37;;;;;;;17.58;12.05;;;15.40;78.90;;;;;;5038651;28;20017;-80
2021/05/19 09:25:19;;;;;;;21.33;11.80;;;15.50;78.60;;;;;;5055394;28;20376;-81
2021/05/19 09:27:47;;;;;;;20.63;11.90;;;15.70;77.90;;;;;;5056617;28;20025;-81
2021/05/19 09:30:14;;;;;;;17.80;11.88;;;15.80;77.70;;;;;;5057269;28;20021;-82
2021/05/19 09:32:43;;;;;;;17.15;12.02;;;15.80;77.20;;;;;;5075080;28;20365;-73
2021/05/19 09:35:10;;;;;;;24.38;15.73;;;15.80;76.70;;;;;;5076155;28;20112;-77
2021/05/19 09:37:36;;;;;;;24.77;15.00;;;15.70;76.30;;;;;;5055395;28;20392;-74
2021/05/19 09:40:08;;;;;;;23.08;15.43;;;15.60;76.50;;;;;;5054659;28;20087;-79
2021/05/19 09:42:37;;;;;;;19.65;14.25;;;15.50;78.40;;;;;;5055815;28;20033;-78
2021/05/19 09:45:27;;;;;;;20.70;14.20;;;15.40;79.20;;;;;;5054679;28;20447;-79
2021/05/19 09:47:55;;;;;;;20.67;15.18;;;15.40;79.80;;;;;;5054489;28;20534;-79
2021/05/19 09:50:42;;;;;;;18.55;12.38;;;15.40;80.20;;;;;;5054563;28;20033;-78
2021/05/19 09:53:09;;;;;;;21.10;13.05;;;15.50;80.30;;;;;;5055545;28;20094;-82
2021/05/19 09:55:36;;;;;;;19.67;13.65;;;15.60;79.40;;;;;;5055618;28;20047;-79
2021/05/19 09:58:03;;;;;;;20.02;12.63;;;15.80;79.00;;;;;;5055849;28;20033;-80
2021/05/19 10:00:30;;;;;;;16.58;12.65;;;16.00;79.10;;;;;;5054417;28;20412;-79
2021/05/19 10:02:56;;;;;;;18.90;11.95;;;16.20;78.10;;;;;;5056525;28;20025;-79
2021/05/19 10:05:27;;;;;;;20.40;12.38;;;16.20;77.40;;;;;;5058774;28;20059;-80
2021/05/19 10:07:54;;;;;;;21.08;13.07;;;16.20;76.50;;;;;;5050976;28;20025;-80
2021/05/19 10:10:21;;;;;;;19.05;12.50;;;16.30;75.80;;;;;;5059766;28;20114;-80
2021/05/19 10:12:47;;;;;;;18.83;12.20;;;16.40;76.10;;;;;;5074633;28;20013;-81
2021/05/19 10:15:18;;;;;;;16.70;10.93;;;16.50;75.60;;;;;;5064088;28;20039;-80
2021/05/19 10:17:48;;;;;;;17.60;11.30;;;16.50;75.00;;;;;;5075446;28;20028;-82
2021/05/19 10:20:17;;;;;;;15.27;10.68;;;16.50;74.80;;;;;;5061267;28;20468;-83
2021/05/19 10:22:45;;;;;;;18.83;11.40;;;16.50;74.70;;;;;;5055054;28;20043;-79
2021/05/19 10:25:32;;;;;;;17.58;12.23;;;16.50;74.70;;;;;;5037634;28;20472;-80
2021/05/19 10:28:00;;;;;;;18.23;10.55;;;16.40;74.10;;;;;;5053809;28;20025;-80
2021/05/19 10:30:42;;;;;;;13.63;8.98;;;16.60;74.00;;;;;;5037257;28;20071;-81
2021/05/19 10:33:37;;;;;;;16.13;9.27;;;16.70;73.70;;;;;;5054975;28;20025;-80
2021/05/19 10:36:24;;;;;;;16.95;9.63;;;16.80;72.10;;;;;;5054925;28;20052;-82
2021/05/19 10:39:12;;;;;;;15.65;10.68;;;16.90;71.80;;;;;;5053905;28;20029;-83
2021/05/19 10:41:39;;;;;;;15.77;9.10;;;16.90;70.80;;;;;;5050660;28;20029;-78
2021/05/19 10:44:16;;;;;;;13.93;9.18;;;16.80;70.60;;;;;;5054909;28;20029;-80
2021/05/19 10:47:06;;;;;;;13.00;8.93;;;16.90;70.70;;;;;;5055097;28;20554;-83
2021/05/19 10:49:55;;;;;;;13.45;8.85;;;17.10;71.30;;;;;;5037440;28;20032;-81
2021/05/19 10:57:43;;;;;;;2.97;0.65;;;16.20;62.90;;;;;;5054472;28;20044;-80
2021/05/19 11:00:22;;;;;;;3.22;0.55;;;15.60;68.20;;;;;;5036614;28;20045;-79
2021/05/19 11:02:54;;;;;;;1.92;0.50;;;15.00;70.90;;;;;;5059807;28;20074;-81
2021/05/19 11:05:26;;;;;;;6.97;0.70;;;14.30;73.60;;;;;;5058493;28;20071;-81
2021/05/19 11:08:07;;;;;;;1.85;0.50;;;13.70;76.30;;;;;;5069651;28;20071;-80
2021/05/19 11:10:36;;;;;;;3.15;0.57;;;13.10;79.10;;;;;;5063303;28;20055;-82
2021/05/19 11:13:02;;;;;;;2.78;0.65;;;12.60;81.20;;;;;;5054138;28;20033;-80
2021/05/19 11:21:02;;;;;;;4.00;0.60;;;11.50;85.90;;;;;;5054398;28;20403;-76
2021/05/19 11:23:28;;;;;;;2.95;0.60;;;11.30;87.30;;;;;;5054471;28;20028;-79
2021/05/19 11:26:10;;;;;;;1.63;0.60;;;11.10;88.70;;;;;;5063138;28;20054;-77
2021/05/19 11:28:36;;;;;;;2.30;0.70;;;11.00;89.60;;;;;;5073942;28;20059;-77
2021/05/19 11:31:12;;;;;;;3.23;0.67;;;10.80;90.10;;;;;;5059368;28;20513;-78
2021/05/19 11:33:58;;;;;;;2.17;1.03;;;10.80;90.00;;;;;;5053939;28;20013;-78
2021/05/19 11:36:31;;;;;;;2.23;0.80;;;10.80;89.60;;;;;;5060925;28;20043;-78
2021/05/19 11:38:57;;;;;;;1.87;0.80;;;10.70;90.10;;;;;;5053803;28;20056;-77
2021/05/19 11:41:23;;;;;;;2.30;0.70;;;10.70;90.30;;;;;;5053782;28;20056;-78
2021/05/19 11:43:49;;;;;;;1.80;0.43;;;10.70;90.60;;;;;;5063629;28;20029;-78
2021/05/19 11:46:15;;;;;;;3.33;0.80;;;10.70;90.40;;;;;;5052866;28;20530;-77
2021/05/19 11:48:46;;;;;;;2.77;0.60;;;10.70;90.20;;;;;;5053936;28;20089;-78
2021/05/19 11:51:24;;;;;;;0.73;0.50;;;10.70;90.10;;;;;;5037019;28;20075;-78
2021/05/19 11:53:53;;;;;;;2.90;0.80;;;10.80;90.20;;;;;;5052705;28;20441;-77
2021/05/19 11:56:19;;;;;;;3.37;0.50;;;10.90;90.50;;;;;;5054127;28;20059;-78
2021/05/19 11:58:46;;;;;;;1.50;0.60;;;11.00;90.80;;;;;;5052485;28;20037;-77
2021/05/19 12:01:14;;;;;;;1.63;0.50;;;10.90;90.70;;;;;;5035906;28;20489;-78
2021/05/19 12:03:40;;;;;;;2.70;0.80;;;10.90;90.80;;;;;;5052441;28;20166;-78
2021/05/19 12:06:08;;;;;;;2.30;0.40;;;10.90;90.80;;;;;;5065530;28;20068;-78
2021/05/19 12:08:42;;;;;;;2.83;0.50;;;11.00;90.80;;;;;;5072559;28;20116;-78
2021/05/19 12:11:18;;;;;;;2.77;0.50;;;11.00;90.70;;;;;;5057124;28;20072;-78
2021/05/19 12:13:56;;;;;;;2.10;1.10;;;11.10;90.70;;;;;;5052203;28;20044;-79
2021/05/19 12:16:29;;;;;;;2.30;0.50;;;11.20;90.80;;;;;;5053462;28;20031;-79
2021/05/19 12:19:21;;;;;;;2.17;0.50;;;11.30;90.70;;;;;;5053550;28;20412;-80
2021/05/19 12:21:51;;;;;;;2.33;0.50;;;11.50;90.60;;;;;;5052196;28;20079;-77
2021/05/19 12:24:24;;;;;;;3.80;0.80;;;11.60;90.60;;;;;;5053515;28;20116;-81
2021/05/19 12:26:54;;;;;;;1.07;0.40;;;11.60;90.50;;;;;;5052499;28;20025;-78
2021/05/19 12:29:29;;;;;;;1.37;0.57;;;11.70;90.40;;;;;;5035384;28;20021;-80
2021/05/19 12:32:07;;;;;;;1.67;0.67;;;11.80;90.40;;;;;;5057740;28;20480;-79
2021/05/19 12:34:34;;;;;;;3.63;0.70;;;11.90;90.30;;;;;;5072326;28;20017;-80
2021/05/19 12:37:00;;;;;;;3.97;0.60;;;11.90;90.20;;;;;;5055530;28;20071;-77
2021/05/19 12:39:27;;;;;;;2.58;0.60;;;12.00;90.20;;;;;;5073239;28;20036;-78
2021/05/19 12:41:53;;;;;;;3.57;0.70;;;12.10;90.10;;;;;;5073137;28;20479;-77
2021/05/19 12:44:25;;;;;;;3.05;0.73;;;12.20;90.00;;;;;;5073230;28;20410;-78
2021/05/19 12:47:05;;;;;;;2.42;0.70;;;12.30;90.00;;;;;;5071839;28;20056;-78
2021/05/19 12:49:32;;;;;;;3.33;0.65;;;12.40;89.90;;;;;;5071567;28;20088;-78
2021/05/19 12:52:00;;;;;;;1.08;0.50;;;12.50;89.70;;;;;;5073032;28;20020;-77
2021/05/19 12:54:37;;;;;;;2.50;0.70;;;12.60;90.00;;;;;;5073226;28;20021;-77
2021/05/19 12:57:13;;;;;;;5.22;0.80;;;12.80;89.40;;;;;;5072873;28;20036;-77